Alghero, Italy

8:28 PM CEST on September 21, 2014 (GMT +0200)
CORMORANO MARINA | Change Station
CLOSE
Current Station
Personal Weather Station
Location: Porto Torres, SS
Elevation: 5 ft
Nearby Weather Stations

Elev 5 ft 40.84 °N, 8.40 °E | Updated 2 seconds ago

Clear
Clear
76.9 °F
Feels Like 78 °F
N
6.0
Wind Variable Wind from WSW
Gusts 8.0 mph

Today
High -- | Low -- °F
--% Chance of Precip.
Yesterday
High -- | Low -- °F
Precip. -- in
7:13 AM 7:26 PM
Waning Crescent, 6% visible
Pressure 30.04 in
Visibility -9999.0 miles
Clouds
Heat Index 78 °F
Dew Point 72 °F
Humidity 86%
Rainfall 0.00 in
Snow Depth Not available.
UV Not available.
Pollen Not available.
Air Quality Not available.
Flu Activity Not available.
METAR LIEA 211820Z 29004KT CAVOK 24/22 Q1017

More Conditions Fewer Conditions

Pressure 30.04 in
Visibility -9999.0 miles
Clouds
Heat Index 78 °F
Dew Point 72 °F
Humidity 86%
Rainfall 0.00 in
Snow Depth Not available.
UV Not available.
Pollen Not available.
Air Quality Not available.
Flu Activity Not available.
METAR LIEA 211820Z 29004KT CAVOK 24/22 Q1017

More Conditions Fewer Conditions

10-Day Weather Forecast

Almanac

Astronomy

Sep. 21, 2014 Rise Set
Actual Time 7:13 AM CEST 7:26 PM CEST
Civil Twilight 6:45 AM CEST 7:53 PM CEST
Nautical Twilight 6:13 AM CEST 8:25 PM CEST
Astronomical Twilight 5:41 AM CEST 8:57 PM CEST
Moon 4:31 AM CEST 5:54 PM CEST
Length of Visible Light 13h 07m
Length of Day
12h 12m
Tomorrow will be 2m 40s shorter.
Waning Crescent, 6% of the Moon is Illuminated
Today
Waning Crescent
Sep 24
New
Oct 1
First Quarter
Oct 8
Full
Oct 15
Last Quarter

Today's Extremes

Country Highs Country Lows

Community

WunderPhotos

Upload Photos

1,755,212 photos uploaded!

WunderBlogs® & News

Nearby

Snow Depth

Not available.

Earthquake Activity

City Distance Mag. Time & Date
No recent earthquake activity has been reported nearby.
Minimum magnitude displayed is 2.5.

Coastal Water Temperatures

Place Temperature
No Stations Reporting

Nearby Weather Stations